sensor_id;sensor_type;location;lat;lon;timestamp;pressure;altitude;pressure_sealevel;temperature;humidity
37832;BME280;23671;38.090;-122.570;2023-02-28T00:01:29;101107.56;;;10.46;67.54
37832;BME280;23671;38.090;-122.570;2023-02-28T00:03:56;101110.34;;;10.45;67.48
37832;BME280;23671;38.090;-122.570;2023-02-28T00:06:24;101099.78;;;10.45;67.47
37832;BME280;23671;38.090;-122.570;2023-02-28T00:08:51;101103.16;;;10.47;67.49
37832;BME280;23671;38.090;-122.570;2023-02-28T00:11:18;101098.06;;;10.44;67.56
37832;BME280;23671;38.090;-122.570;2023-02-28T00:13:46;101109.59;;;10.43;67.87
37832;BME280;23671;38.090;-122.570;2023-02-28T00:16:17;101106.09;;;10.42;67.57
37832;BME280;23671;38.090;-122.570;2023-02-28T00:18:45;101114.03;;;10.42;67.62
37832;BME280;23671;38.090;-122.570;2023-02-28T00:21:14;101126.38;;;10.42;67.32
37832;BME280;23671;38.090;-122.570;2023-02-28T00:23:41;101125.56;;;10.41;67.34
37832;BME280;23671;38.090;-122.570;2023-02-28T00:26:09;101130.84;;;10.41;67.39
37832;BME280;23671;38.090;-122.570;2023-02-28T00:28:36;101130.91;;;10.40;67.25
37832;BME280;23671;38.090;-122.570;2023-02-28T00:31:03;101141.41;;;10.41;67.14
37832;BME280;23671;38.090;-122.570;2023-02-28T00:33:30;101133.97;;;10.46;67.05
37832;BME280;23671;38.090;-122.570;2023-02-28T00:36:09;101155.94;;;10.47;66.77
37832;BME280;23671;38.090;-122.570;2023-02-28T00:38:37;101165.66;;;10.46;66.92
37832;BME280;23671;38.090;-122.570;2023-02-28T00:41:05;101165.03;;;10.43;66.66
37832;BME280;23671;38.090;-122.570;2023-02-28T00:43:37;101164.91;;;10.44;66.75
37832;BME280;23671;38.090;-122.570;2023-02-28T00:46:06;101169.34;;;10.44;66.54
37832;BME280;23671;38.090;-122.570;2023-02-28T00:48:33;101165.97;;;10.42;66.05
37832;BME280;23671;38.090;-122.570;2023-02-28T00:51:01;101185.41;;;10.41;66.36
37832;BME280;23671;38.090;-122.570;2023-02-28T00:53:28;101201.56;;;10.36;66.62
37832;BME280;23671;38.090;-122.570;2023-02-28T00:55:55;101224.28;;;10.39;66.64
37832;BME280;23671;38.090;-122.570;2023-02-28T00:58:23;101225.31;;;10.36;66.18
37832;BME280;23671;38.090;-122.570;2023-02-28T01:00:51;101221.84;;;10.36;65.49
37832;BME280;23671;38.090;-122.570;2023-02-28T01:03:20;101234.22;;;10.35;65.96
37832;BME280;23671;38.090;-122.570;2023-02-28T01:05:47;101223.22;;;10.29;66.06
37832;BME280;23671;38.090;-122.570;2023-02-28T01:08:15;101233.66;;;10.30;65.51
37832;BME280;23671;38.090;-122.570;2023-02-28T01:10:42;101225.00;;;10.28;65.88
37832;BME280;23671;38.090;-122.570;2023-02-28T01:13:09;101229.03;;;10.21;66.20
37832;BME280;23671;38.090;-122.570;2023-02-28T01:15:37;101223.03;;;10.19;66.24
37832;BME280;23671;38.090;-122.570;2023-02-28T01:18:06;101232.53;;;10.22;66.13
37832;BME280;23671;38.090;-122.570;2023-02-28T01:20:33;101235.38;;;10.19;66.06
37832;BME280;23671;38.090;-122.570;2023-02-28T01:23:01;101233.88;;;10.15;65.98
37832;BME280;23671;38.090;-122.570;2023-02-28T01:25:28;101246.44;;;10.11;65.93
37832;BME280;23671;38.090;-122.570;2023-02-28T01:27:55;101259.53;;;10.13;65.58
37832;BME280;23671;38.090;-122.570;2023-02-28T01:30:22;101265.78;;;10.12;65.41
37832;BME280;23671;38.090;-122.570;2023-02-28T01:32:49;101272.94;;;10.10;65.48
37832;BME280;23671;38.090;-122.570;2023-02-28T01:35:18;101267.66;;;10.10;65.58
37832;BME280;23671;38.090;-122.570;2023-02-28T01:37:45;101242.41;;;10.05;65.57
37832;BME280;23671;38.090;-122.570;2023-02-28T01:40:12;101229.31;;;10.04;65.74
37832;BME280;23671;38.090;-122.570;2023-02-28T01:42:40;101221.53;;;10.02;65.10
37832;BME280;23671;38.090;-122.570;2023-02-28T01:48:03;101230.50;;;10.00;65.31
37832;BME280;23671;38.090;-122.570;2023-02-28T01:50:35;101230.78;;;9.95;65.17
37832;BME280;23671;38.090;-122.570;2023-02-28T01:53:10;101234.59;;;9.91;65.47
37832;BME280;23671;38.090;-122.570;2023-02-28T01:55:42;101240.81;;;9.90;65.11
37832;BME280;23671;38.090;-122.570;2023-02-28T01:58:12;101249.03;;;9.86;65.06
37832;BME280;23671;38.090;-122.570;2023-02-28T02:00:40;101244.81;;;9.83;65.20
37832;BME280;23671;38.090;-122.570;2023-02-28T02:03:14;101258.22;;;9.80;65.12
37832;BME280;23671;38.090;-122.570;2023-02-28T02:05:45;101267.81;;;9.81;65.03
37832;BME280;23671;38.090;-122.570;2023-02-28T02:08:21;101271.63;;;9.77;65.35
37832;BME280;23671;38.090;-122.570;2023-02-28T02:10:54;101285.94;;;9.73;65.11
37832;BME280;23671;38.090;-122.570;2023-02-28T02:25:39;101263.88;;;9.62;64.72
37832;BME280;23671;38.090;-122.570;2023-02-28T02:34:18;101271.56;;;9.52;64.18
37832;BME280;23671;38.090;-122.570;2023-02-28T02:39:50;101274.78;;;9.43;64.23
37832;BME280;23671;38.090;-122.570;2023-02-28T02:42:31;101278.00;;;9.34;64.78
37832;BME280;23671;38.090;-122.570;2023-02-28T02:45:12;101287.91;;;9.31;64.22
37832;BME280;23671;38.090;-122.570;2023-02-28T02:47:43;101287.34;;;9.26;64.60
37832;BME280;23671;38.090;-122.570;2023-02-28T02:50:19;101293.56;;;9.25;64.76
37832;BME280;23671;38.090;-122.570;2023-02-28T02:52:53;101297.56;;;9.18;64.45
37832;BME280;23671;38.090;-122.570;2023-02-28T02:55:22;101299.50;;;9.14;65.06
37832;BME280;23671;38.090;-122.570;2023-02-28T02:57:55;101294.56;;;9.09;64.80
37832;BME280;23671;38.090;-122.570;2023-02-28T03:00:29;101298.13;;;9.08;65.10
37832;BME280;23671;38.090;-122.570;2023-02-28T03:02:57;101301.81;;;9.06;64.69
37832;BME280;23671;38.090;-122.570;2023-02-28T03:05:33;101299.47;;;9.01;64.55
37832;BME280;23671;38.090;-122.570;2023-02-28T03:08:04;101303.13;;;8.99;64.63
37832;BME280;23671;38.090;-122.570;2023-02-28T03:26:54;101312.94;;;8.69;64.92
37832;BME280;23671;38.090;-122.570;2023-02-28T03:29:42;101315.78;;;8.66;65.47
37832;BME280;23671;38.090;-122.570;2023-02-28T03:32:22;101313.53;;;8.60;64.98
37832;BME280;23671;38.090;-122.570;2023-02-28T03:35:11;101319.06;;;8.55;65.17
37832;BME280;23671;38.090;-122.570;2023-02-28T03:37:42;101320.28;;;8.50;65.63
37832;BME280;23671;38.090;-122.570;2023-02-28T03:40:17;101334.47;;;8.47;65.14
37832;BME280;23671;38.090;-122.570;2023-02-28T03:42:50;101329.56;;;8.41;65.11
37832;BME280;23671;38.090;-122.570;2023-02-28T03:45:30;101328.91;;;8.38;65.56
37832;BME280;23671;38.090;-122.570;2023-02-28T03:48:08;101322.16;;;8.34;65.37
37832;BME280;23671;38.090;-122.570;2023-02-28T03:50:49;101330.41;;;8.27;65.67
37832;BME280;23671;38.090;-122.570;2023-02-28T04:03:47;101333.06;;;8.12;65.79
37832;BME280;23671;38.090;-122.570;2023-02-28T04:06:20;101338.97;;;8.01;65.68
37832;BME280;23671;38.090;-122.570;2023-02-28T04:08:49;101326.94;;;7.97;65.67
37832;BME280;23671;38.090;-122.570;2023-02-28T04:13:46;101343.06;;;7.91;66.13
37832;BME280;23671;38.090;-122.570;2023-02-28T04:16:13;101350.28;;;7.88;65.52
37832;BME280;23671;38.090;-122.570;2023-02-28T04:18:41;101351.13;;;7.88;65.76
37832;BME280;23671;38.090;-122.570;2023-02-28T04:21:13;101366.16;;;7.86;65.91
37832;BME280;23671;38.090;-122.570;2023-02-28T04:23:41;101369.88;;;7.82;66.39
37832;BME280;23671;38.090;-122.570;2023-02-28T04:26:08;101368.19;;;7.81;66.06
37832;BME280;23671;38.090;-122.570;2023-02-28T04:28:37;101377.88;;;7.81;66.05
37832;BME280;23671;38.090;-122.570;2023-02-28T04:31:05;101380.56;;;7.79;66.11
37832;BME280;23671;38.090;-122.570;2023-02-28T04:33:33;101378.97;;;7.77;65.91
37832;BME280;23671;38.090;-122.570;2023-02-28T04:36:05;101373.72;;;7.77;66.55
37832;BME280;23671;38.090;-122.570;2023-02-28T04:38:35;101373.13;;;7.72;66.24
37832;BME280;23671;38.090;-122.570;2023-02-28T04:41:03;101366.34;;;7.68;66.44
37832;BME280;23671;38.090;-122.570;2023-02-28T04:43:30;101372.63;;;7.65;66.31
37832;BME280;23671;38.090;-122.570;2023-02-28T04:46:00;101364.00;;;7.63;66.81
37832;BME280;23671;38.090;-122.570;2023-02-28T04:48:33;101365.00;;;7.61;66.62
37832;BME280;23671;38.090;-122.570;2023-02-28T04:51:05;101373.13;;;7.56;66.72
37832;BME280;23671;38.090;-122.570;2023-02-28T04:53:32;101381.00;;;7.56;66.96
37832;BME280;23671;38.090;-122.570;2023-02-28T04:56:00;101384.59;;;7.55;67.03
37832;BME280;23671;38.090;-122.570;2023-02-28T04:58:27;101387.38;;;7.52;66.75
37832;BME280;23671;38.090;-122.570;2023-02-28T05:01:00;101381.09;;;7.55;66.43
37832;BME280;23671;38.090;-122.570;2023-02-28T05:03:27;101398.06;;;7.49;66.61
37832;BME280;23671;38.090;-122.570;2023-02-28T05:05:54;101421.72;;;7.49;66.75
37832;BME280;23671;38.090;-122.570;2023-02-28T05:08:22;101408.47;;;7.51;66.97
37832;BME280;23671;38.090;-122.570;2023-02-28T05:10:49;101399.06;;;7.47;66.99
37832;BME280;23671;38.090;-122.570;2023-02-28T05:13:16;101392.91;;;7.48;66.56
37832;BME280;23671;38.090;-122.570;2023-02-28T05:15:43;101389.50;;;7.46;66.77
37832;BME280;23671;38.090;-122.570;2023-02-28T05:18:10;101404.59;;;7.42;66.94
37832;BME280;23671;38.090;-122.570;2023-02-28T05:20:37;101404.59;;;7.42;66.81
37832;BME280;23671;38.090;-122.570;2023-02-28T05:23:04;101407.28;;;7.41;66.95
37832;BME280;23671;38.090;-122.570;2023-02-28T05:25:31;101406.47;;;7.40;66.74
37832;BME280;23671;38.090;-122.570;2023-02-28T05:27:58;101411.63;;;7.42;66.85
37832;BME280;23671;38.090;-122.570;2023-02-28T05:30:26;101411.78;;;7.38;66.81
37832;BME280;23671;38.090;-122.570;2023-02-28T05:32:53;101416.34;;;7.35;66.89
37832;BME280;23671;38.090;-122.570;2023-02-28T05:35:20;101421.59;;;7.35;66.87
37832;BME280;23671;38.090;-122.570;2023-02-28T05:37:47;101411.97;;;7.35;66.85
37832;BME280;23671;38.090;-122.570;2023-02-28T05:40:14;101417.41;;;7.32;66.91
37832;BME280;23671;38.090;-122.570;2023-02-28T05:42:42;101425.41;;;7.29;66.94
37832;BME280;23671;38.090;-122.570;2023-02-28T05:45:10;101437.88;;;7.26;67.19
37832;BME280;23671;38.090;-122.570;2023-02-28T05:47:37;101433.47;;;7.26;66.85
37832;BME280;23671;38.090;-122.570;2023-02-28T05:50:05;101436.34;;;7.22;67.13
37832;BME280;23671;38.090;-122.570;2023-02-28T05:52:32;101430.41;;;7.18;67.04
37832;BME280;23671;38.090;-122.570;2023-02-28T05:54:59;101425.25;;;7.17;66.94
37832;BME280;23671;38.090;-122.570;2023-02-28T05:57:26;101427.88;;;7.17;66.89
37832;BME280;23671;38.090;-122.570;2023-02-28T05:59:53;101437.53;;;7.16;67.00
37832;BME280;23671;38.090;-122.570;2023-02-28T06:02:20;101422.78;;;7.14;66.96
37832;BME280;23671;38.090;-122.570;2023-02-28T06:04:48;101418.56;;;7.11;66.85
37832;BME280;23671;38.090;-122.570;2023-02-28T06:07:15;101429.19;;;7.08;67.27
37832;BME280;23671;38.090;-122.570;2023-02-28T06:09:44;101432.91;;;7.04;66.83
37832;BME280;23671;38.090;-122.570;2023-02-28T06:12:11;101439.69;;;7.08;66.99
37832;BME280;23671;38.090;-122.570;2023-02-28T06:14:38;101453.84;;;7.06;67.12
37832;BME280;23671;38.090;-122.570;2023-02-28T06:17:05;101439.94;;;7.04;66.91
37832;BME280;23671;38.090;-122.570;2023-02-28T06:19:32;101457.56;;;7.02;66.92
37832;BME280;23671;38.090;-122.570;2023-02-28T06:22:00;101451.38;;;7.03;66.80
37832;BME280;23671;38.090;-122.570;2023-02-28T06:24:27;101463.56;;;7.04;66.96
37832;BME280;23671;38.090;-122.570;2023-02-28T06:26:54;101453.91;;;7.04;66.79
37832;BME280;23671;38.090;-122.570;2023-02-28T06:29:21;101460.19;;;7.02;66.77
37832;BME280;23671;38.090;-122.570;2023-02-28T06:31:49;101450.44;;;7.04;66.50
37832;BME280;23671;38.090;-122.570;2023-02-28T06:34:16;101455.78;;;7.02;66.73
37832;BME280;23671;38.090;-122.570;2023-02-28T06:36:44;101461.19;;;6.99;66.54
37832;BME280;23671;38.090;-122.570;2023-02-28T06:39:11;101467.31;;;7.00;66.97
37832;BME280;23671;38.090;-122.570;2023-02-28T06:41:39;101465.59;;;6.99;66.54
37832;BME280;23671;38.090;-122.570;2023-02-28T06:44:12;101462.19;;;6.97;66.35
37832;BME280;23671;38.090;-122.570;2023-02-28T06:46:42;101458.81;;;6.95;66.40
37832;BME280;23671;38.090;-122.570;2023-02-28T06:49:10;101464.75;;;6.98;66.22
37832;BME280;23671;38.090;-122.570;2023-02-28T06:51:40;101459.81;;;6.92;66.41
37832;BME280;23671;38.090;-122.570;2023-02-28T06:54:08;101463.28;;;6.93;66.41
37832;BME280;23671;38.090;-122.570;2023-02-28T06:56:36;101462.44;;;6.92;66.27
37832;BME280;23671;38.090;-122.570;2023-02-28T06:59:03;101465.00;;;6.94;66.33
37832;BME280;23671;38.090;-122.570;2023-02-28T07:01:30;101460.75;;;6.91;66.12
37832;BME280;23671;38.090;-122.570;2023-02-28T07:04:00;101464.38;;;6.89;66.27
37832;BME280;23671;38.090;-122.570;2023-02-28T07:06:28;101464.38;;;6.89;66.25
37832;BME280;23671;38.090;-122.570;2023-02-28T07:08:55;101460.75;;;6.91;66.18
37832;BME280;23671;38.090;-122.570;2023-02-28T07:11:25;101460.97;;;6.87;66.04
37832;BME280;23671;38.090;-122.570;2023-02-28T07:13:56;101460.06;;;6.88;66.25
37832;BME280;23671;38.090;-122.570;2023-02-28T07:16:24;101454.72;;;6.89;65.89
37832;BME280;23671;38.090;-122.570;2023-02-28T07:18:53;101463.28;;;6.93;65.67
37832;BME280;23671;38.090;-122.570;2023-02-28T07:21:20;101470.47;;;6.89;65.95
37832;BME280;23671;38.090;-122.570;2023-02-28T07:23:47;101467.75;;;6.91;65.69
37832;BME280;23671;38.090;-122.570;2023-02-28T07:26:16;101468.81;;;6.88;65.72
37832;BME280;23671;38.090;-122.570;2023-02-28T07:28:46;101468.94;;;6.85;65.63
37832;BME280;23671;38.090;-122.570;2023-02-28T07:31:14;101468.25;;;6.82;65.96
37832;BME280;23671;38.090;-122.570;2023-02-28T07:33:42;101470.03;;;6.81;65.71
37832;BME280;23671;38.090;-122.570;2023-02-28T07:36:12;101482.16;;;6.84;65.57
37832;BME280;23671;38.090;-122.570;2023-02-28T07:38:45;101477.03;;;6.81;65.79
37832;BME280;23671;38.090;-122.570;2023-02-28T07:41:15;101475.28;;;6.81;65.84
37832;BME280;23671;38.090;-122.570;2023-02-28T07:43:42;101477.28;;;6.76;65.80
37832;BME280;23671;38.090;-122.570;2023-02-28T07:46:13;101478.84;;;6.80;65.62
37832;BME280;23671;38.090;-122.570;2023-02-28T07:48:42;101484.31;;;6.76;65.61
37832;BME280;23671;38.090;-122.570;2023-02-28T07:51:09;101477.53;;;6.72;65.85
37832;BME280;23671;38.090;-122.570;2023-02-28T07:53:37;101481.91;;;6.71;65.64
37832;BME280;23671;38.090;-122.570;2023-02-28T07:56:04;101484.63;;;6.70;65.73
37832;BME280;23671;38.090;-122.570;2023-02-28T07:58:32;101483.06;;;6.66;65.72
37832;BME280;23671;38.090;-122.570;2023-02-28T08:01:09;101488.25;;;6.67;65.54
37832;BME280;23671;38.090;-122.570;2023-02-28T08:03:37;101485.69;;;6.66;65.57
37832;BME280;23671;38.090;-122.570;2023-02-28T08:06:06;101486.00;;;6.60;65.77
37832;BME280;23671;38.090;-122.570;2023-02-28T08:08:34;101484.31;;;6.59;65.67
37832;BME280;23671;38.090;-122.570;2023-02-28T08:11:03;101491.59;;;6.54;66.30
37832;BME280;23671;38.090;-122.570;2023-02-28T08:13:30;101493.34;;;6.53;65.92
37832;BME280;23671;38.090;-122.570;2023-02-28T08:15:58;101490.81;;;6.52;65.87
37832;BME280;23671;38.090;-122.570;2023-02-28T08:18:25;101485.56;;;6.52;65.69
37832;BME280;23671;38.090;-122.570;2023-02-28T08:20:53;101491.63;;;6.52;65.82
37832;BME280;23671;38.090;-122.570;2023-02-28T08:23:21;101491.16;;;6.44;65.99
37832;BME280;23671;38.090;-122.570;2023-02-28T08:25:57;101494.94;;;6.38;66.06
37832;BME280;23671;38.090;-122.570;2023-02-28T08:28:24;101492.41;;;6.37;66.02
37832;BME280;23671;38.090;-122.570;2023-02-28T08:30:52;101486.19;;;6.21;66.46
37832;BME280;23671;38.090;-122.570;2023-02-28T08:33:18;101494.16;;;6.19;66.32
37832;BME280;23671;38.090;-122.570;2023-02-28T08:35:45;101500.03;;;6.24;66.27
37832;BME280;23671;38.090;-122.570;2023-02-28T08:38:12;101488.63;;;6.25;66.00
37832;BME280;23671;38.090;-122.570;2023-02-28T08:40:39;101488.00;;;6.20;66.26
37832;BME280;23671;38.090;-122.570;2023-02-28T08:43:07;101488.22;;;6.16;66.43
37832;BME280;23671;38.090;-122.570;2023-02-28T08:45:34;101486.38;;;6.18;66.33
37832;BME280;23671;38.090;-122.570;2023-02-28T08:48:01;101492.69;;;6.14;66.37
37832;BME280;23671;38.090;-122.570;2023-02-28T08:50:28;101508.63;;;6.09;66.47
37832;BME280;23671;38.090;-122.570;2023-02-28T08:52:55;101494.00;;;6.05;66.58
37832;BME280;23671;38.090;-122.570;2023-02-28T08:55:22;101492.84;;;6.11;66.16
37832;BME280;23671;38.090;-122.570;2023-02-28T08:57:49;101491.78;;;6.15;66.30
37832;BME280;23671;38.090;-122.570;2023-02-28T09:00:16;101490.13;;;6.12;66.01
37832;BME280;23671;38.090;-122.570;2023-02-28T09:02:43;101487.66;;;6.09;65.82
37832;BME280;23671;38.090;-122.570;2023-02-28T09:05:10;101485.81;;;6.11;65.97
37832;BME280;23671;38.090;-122.570;2023-02-28T09:07:37;101493.66;;;6.11;65.82
37832;BME280;23671;38.090;-122.570;2023-02-28T09:10:05;101483.44;;;6.07;66.16
37832;BME280;23671;38.090;-122.570;2023-02-28T09:12:34;101481.66;;;6.07;65.72
37832;BME280;23671;38.090;-122.570;2023-02-28T09:15:02;101477.31;;;6.06;65.88
37832;BME280;23671;38.090;-122.570;2023-02-28T09:17:29;101478.56;;;5.99;66.08
37832;BME280;23671;38.090;-122.570;2023-02-28T09:19:57;101468.13;;;5.98;65.91
37832;BME280;23671;38.090;-122.570;2023-02-28T09:22:24;101474.91;;;6.02;65.92
37832;BME280;23671;38.090;-122.570;2023-02-28T09:24:52;101459.19;;;6.02;65.67
37832;BME280;23671;38.090;-122.570;2023-02-28T09:27:19;101466.84;;;6.06;65.32
37832;BME280;23671;38.090;-122.570;2023-02-28T09:29:45;101456.28;;;6.08;65.24
37832;BME280;23671;38.090;-122.570;2023-02-28T09:32:12;101461.59;;;6.06;65.25
37832;BME280;23671;38.090;-122.570;2023-02-28T09:34:39;101457.22;;;6.07;65.14
37832;BME280;23671;38.090;-122.570;2023-02-28T09:37:07;101460.91;;;6.03;65.36
37832;BME280;23671;38.090;-122.570;2023-02-28T09:39:34;101449.56;;;6.02;65.18
37832;BME280;23671;38.090;-122.570;2023-02-28T09:42:03;101442.63;;;6.01;65.30
37832;BME280;23671;38.090;-122.570;2023-02-28T09:44:44;101439.38;;;5.96;65.44
37832;BME280;23671;38.090;-122.570;2023-02-28T09:47:27;101442.94;;;5.95;65.31
37832;BME280;23671;38.090;-122.570;2023-02-28T09:50:00;101442.94;;;5.95;65.65
37832;BME280;23671;38.090;-122.570;2023-02-28T09:52:31;101439.44;;;5.95;65.47
37832;BME280;23671;38.090;-122.570;2023-02-28T09:55:49;101436.06;;;5.93;65.45
37832;BME280;23671;38.090;-122.570;2023-02-28T10:04:47;101418.88;;;5.87;65.30
37832;BME280;23671;38.090;-122.570;2023-02-28T10:06:54;101426.72;;;5.87;65.35
37832;BME280;23671;38.090;-122.570;2023-02-28T10:09:30;101419.72;;;5.88;65.14
37832;BME280;23671;38.090;-122.570;2023-02-28T10:12:05;101417.09;;;5.88;65.36
37832;BME280;23671;38.090;-122.570;2023-02-28T10:14:35;101429.34;;;5.87;65.37
37832;BME280;23671;38.090;-122.570;2023-02-28T10:17:13;101422.69;;;5.80;65.33
37832;BME280;23671;38.090;-122.570;2023-02-28T10:20:05;101423.59;;;5.79;65.53
37832;BME280;23671;38.090;-122.570;2023-02-28T10:22:52;101429.75;;;5.78;65.35
37832;BME280;23671;38.090;-122.570;2023-02-28T10:25:22;101421.13;;;5.76;65.51
37832;BME280;23671;38.090;-122.570;2023-02-28T10:27:54;101427.97;;;5.79;65.21
37832;BME280;23671;38.090;-122.570;2023-02-28T10:30:25;101427.34;;;5.74;65.40
37832;BME280;23671;38.090;-122.570;2023-02-28T10:32:53;101422.13;;;5.74;65.42
37832;BME280;23671;38.090;-122.570;2023-02-28T10:35:23;101420.47;;;5.71;65.75
37832;BME280;23671;38.090;-122.570;2023-02-28T10:37:55;101418.91;;;5.67;65.53
37832;BME280;23671;38.090;-122.570;2023-02-28T10:43:27;101415.47;;;5.67;65.69
37832;BME280;23671;38.090;-122.570;2023-02-28T10:46:01;101409.38;;;5.66;65.62
37832;BME280;23671;38.090;-122.570;2023-02-28T10:50:56;101392.03;;;5.64;65.30
37832;BME280;23671;38.090;-122.570;2023-02-28T10:58:33;101384.34;;;5.61;65.71
37832;BME280;23671;38.090;-122.570;2023-02-28T11:01:18;101378.41;;;5.57;66.04
37832;BME280;23671;38.090;-122.570;2023-02-28T11:03:46;101378.31;;;5.59;65.56
37832;BME280;23671;38.090;-122.570;2023-02-28T11:06:22;101377.75;;;5.52;65.71
37832;BME280;23671;38.090;-122.570;2023-02-28T11:08:53;101376.00;;;5.52;65.69
37832;BME280;23671;38.090;-122.570;2023-02-28T11:11:24;101375.13;;;5.52;65.52
37832;BME280;23671;38.090;-122.570;2023-02-28T11:13:54;101368.28;;;5.49;65.87
37832;BME280;23671;38.090;-122.570;2023-02-28T11:16:31;101368.06;;;5.54;65.95
37832;BME280;23671;38.090;-122.570;2023-02-28T11:18:59;101373.22;;;5.55;65.51
37832;BME280;23671;38.090;-122.570;2023-02-28T11:21:37;101376.84;;;5.53;66.00
37832;BME280;23671;38.090;-122.570;2023-02-28T11:24:13;101367.34;;;5.50;66.07
37832;BME280;23671;38.090;-122.570;2023-02-28T11:26:48;101375.13;;;5.52;65.75
37832;BME280;23671;38.090;-122.570;2023-02-28T11:29:32;101364.16;;;5.44;65.87
37832;BME280;23671;38.090;-122.570;2023-02-28T11:32:18;101365.81;;;5.46;65.79
37832;BME280;23671;38.090;-122.570;2023-02-28T11:34:58;101354.47;;;5.46;66.06
37832;BME280;23671;38.090;-122.570;2023-02-28T11:37:28;101345.78;;;5.45;66.11
37832;BME280;23671;38.090;-122.570;2023-02-28T11:39:57;101339.78;;;5.43;65.77
37832;BME280;23671;38.090;-122.570;2023-02-28T11:42:37;101337.09;;;5.45;65.76
37832;BME280;23671;38.090;-122.570;2023-02-28T11:45:27;101337.09;;;5.45;66.25
37832;BME280;23671;38.090;-122.570;2023-02-28T11:48:07;101326.69;;;5.43;65.97
37832;BME280;23671;38.090;-122.570;2023-02-28T11:53:44;101329.44;;;5.40;66.50
37832;BME280;23671;38.090;-122.570;2023-02-28T11:56:33;101323.34;;;5.40;66.07
37832;BME280;23671;38.090;-122.570;2023-02-28T12:02:26;101307.78;;;5.37;66.47
37832;BME280;23671;38.090;-122.570;2023-02-28T12:13:29;101307.00;;;5.35;66.72
37832;BME280;23671;38.090;-122.570;2023-02-28T12:19:21;101293.94;;;5.35;66.51
37832;BME280;23671;38.090;-122.570;2023-02-28T12:22:14;101293.94;;;5.35;66.18
37832;BME280;23671;38.090;-122.570;2023-02-28T12:25:02;101287.13;;;5.31;66.64
37832;BME280;23671;38.090;-122.570;2023-02-28T12:27:40;101281.81;;;5.32;66.52
37832;BME280;23671;38.090;-122.570;2023-02-28T12:30:32;101272.13;;;5.34;66.77
37832;BME280;23671;38.090;-122.570;2023-02-28T12:33:14;101281.00;;;5.32;67.15
37832;BME280;23671;38.090;-122.570;2023-02-28T12:38:25;101258.25;;;5.32;66.38
37832;BME280;23671;38.090;-122.570;2023-02-28T12:43:47;101261.72;;;5.33;66.62
37832;BME280;23671;38.090;-122.570;2023-02-28T12:46:44;101269.66;;;5.31;67.06
37832;BME280;23671;38.090;-122.570;2023-02-28T12:49:33;101267.91;;;5.32;67.24
37832;BME280;23671;38.090;-122.570;2023-02-28T12:52:02;101268.72;;;5.32;66.99
37832;BME280;23671;38.090;-122.570;2023-02-28T12:57:03;101268.69;;;5.34;66.79
37832;BME280;23671;38.090;-122.570;2023-02-28T12:59:49;101257.28;;;5.35;66.64
37832;BME280;23671;38.090;-122.570;2023-02-28T13:05:26;101267.75;;;5.35;66.82
37832;BME280;23671;38.090;-122.570;2023-02-28T13:10:50;101250.09;;;5.38;66.86
37832;BME280;23671;38.090;-122.570;2023-02-28T13:13:28;101252.72;;;5.38;66.67
37832;BME280;23671;38.090;-122.570;2023-02-28T13:16:05;101248.34;;;5.39;66.84
37832;BME280;23671;38.090;-122.570;2023-02-28T13:18:42;101233.41;;;5.41;67.29
37832;BME280;23671;38.090;-122.570;2023-02-28T13:21:24;101224.63;;;5.42;66.92
37832;BME280;23671;38.090;-122.570;2023-02-28T13:39:51;101220.78;;;5.49;67.09
37832;BME280;23671;38.090;-122.570;2023-02-28T13:48:00;101212.75;;;5.52;67.35
37832;BME280;23671;38.090;-122.570;2023-02-28T13:56:18;101212.63;;;5.55;67.74
37832;BME280;23671;38.090;-122.570;2023-02-28T13:58:53;101201.13;;;5.57;67.65
37832;BME280;23671;38.090;-122.570;2023-02-28T14:06:34;101203.44;;;5.64;67.71
37832;BME280;23671;38.090;-122.570;2023-02-28T14:11:49;101185.78;;;5.67;67.73
37832;BME280;23671;38.090;-122.570;2023-02-28T14:17:17;101189.94;;;5.71;67.91
37832;BME280;23671;38.090;-122.570;2023-02-28T14:19:46;101192.50;;;5.73;68.35
37832;BME280;23671;38.090;-122.570;2023-02-28T14:26:10;101183.47;;;5.78;68.53
37832;BME280;23671;38.090;-122.570;2023-02-28T14:31:45;101170.13;;;5.83;68.19
37832;BME280;23671;38.090;-122.570;2023-02-28T14:37:20;101163.91;;;5.85;68.27
37832;BME280;23671;38.090;-122.570;2023-02-28T14:39:47;101154.97;;;5.89;68.15
37832;BME280;23671;38.090;-122.570;2023-02-28T14:42:36;101149.66;;;5.91;68.38
37832;BME280;23671;38.090;-122.570;2023-02-28T14:45:20;101148.66;;;5.93;68.20
37832;BME280;23671;38.090;-122.570;2023-02-28T14:47:50;101140.59;;;5.96;68.03
37832;BME280;23671;38.090;-122.570;2023-02-28T14:50:23;101134.44;;;5.97;68.28
37832;BME280;23671;38.090;-122.570;2023-02-28T14:52:54;101133.41;;;6.00;68.03
37832;BME280;23671;38.090;-122.570;2023-02-28T14:55:26;101137.66;;;6.02;68.21
37832;BME280;23671;38.090;-122.570;2023-02-28T14:58:00;101138.44;;;6.04;68.04
37832;BME280;23671;38.090;-122.570;2023-02-28T15:00:33;101147.06;;;6.06;68.04
37832;BME280;23671;38.090;-122.570;2023-02-28T15:03:11;101141.72;;;6.08;68.33
37832;BME280;23671;38.090;-122.570;2023-02-28T15:05:56;101143.25;;;6.12;68.30
37832;BME280;23671;38.090;-122.570;2023-02-28T15:08:24;101141.56;;;6.11;68.39
37832;BME280;23671;38.090;-122.570;2023-02-28T15:10:57;101147.50;;;6.14;68.27
37832;BME280;23671;38.090;-122.570;2023-02-28T15:13:41;101147.41;;;6.16;68.28
37832;BME280;23671;38.090;-122.570;2023-02-28T15:16:17;101150.78;;;6.18;68.49
37832;BME280;23671;38.090;-122.570;2023-02-28T15:21:35;101152.31;;;6.22;68.62